createdAt,value
2023-03-14T00:00:33.924Z,876.00
2023-03-14T00:01:33.919Z,877.00
2023-03-14T00:02:33.961Z,881.00
2023-03-14T00:03:33.892Z,881.00
2023-03-14T00:04:34.145Z,883.00
2023-03-14T00:05:33.871Z,880.00
2023-03-14T00:06:33.850Z,874.00
2023-03-14T00:07:33.850Z,874.00
2023-03-14T00:08:33.841Z,873.00
2023-03-14T00:09:33.824Z,871.00
2023-03-14T00:10:33.884Z,874.00
2023-03-14T00:11:33.819Z,870.00
2023-03-14T00:12:33.796Z,866.00
2023-03-14T00:13:33.786Z,863.00
2023-03-14T00:14:33.773Z,863.00
2023-03-14T00:15:33.790Z,860.00
2023-03-14T00:16:33.807Z,859.00
2023-03-14T00:17:33.749Z,863.00
2023-03-14T00:18:33.722Z,862.00
2023-03-14T00:19:33.741Z,860.00
2023-03-14T00:20:33.714Z,860.00
2023-03-14T00:21:33.702Z,858.00
2023-03-14T00:22:33.824Z,855.00
2023-03-14T00:23:33.679Z,857.00
2023-03-14T00:24:33.667Z,857.00
2023-03-14T00:25:33.746Z,854.00
2023-03-14T00:26:33.647Z,852.00
2023-03-14T00:27:33.750Z,850.00
2023-03-14T00:28:33.791Z,848.00
2023-03-14T00:29:33.628Z,848.00
2023-03-14T00:30:33.605Z,843.00
2023-03-14T00:31:33.600Z,841.00
2023-03-14T00:32:33.652Z,839.00
2023-03-14T00:33:33.574Z,838.00
2023-03-14T00:34:33.716Z,839.00
2023-03-14T00:35:33.590Z,837.00
2023-03-14T00:36:33.542Z,838.00
2023-03-14T00:37:33.527Z,839.00
2023-03-14T00:38:33.512Z,836.00
2023-03-14T00:39:33.538Z,837.00
2023-03-14T00:40:41.268Z,836.00
2023-03-14T00:41:33.494Z,834.00
2023-03-14T00:42:33.470Z,831.00
2023-03-14T00:43:33.477Z,827.00
2023-03-14T00:44:33.456Z,827.00
2023-03-14T00:45:33.480Z,827.00
2023-03-14T00:46:33.532Z,824.00
2023-03-14T00:47:33.427Z,826.00
2023-03-14T00:48:33.427Z,825.00
2023-03-14T00:49:33.407Z,825.00
2023-03-14T00:50:33.404Z,823.00
2023-03-14T00:51:33.383Z,823.00
2023-03-14T00:52:33.508Z,823.00
2023-03-14T00:53:33.363Z,821.00
2023-03-14T00:54:33.350Z,819.00
2023-03-14T00:55:33.348Z,817.00
2023-03-14T00:56:33.325Z,816.00
2023-03-14T00:57:33.331Z,814.00
2023-03-14T00:58:33.347Z,814.00
2023-03-14T00:59:33.298Z,815.00
2023-03-14T01:00:33.282Z,813.00
2023-03-14T01:01:33.333Z,815.00
2023-03-14T01:02:33.277Z,815.00
2023-03-14T01:03:33.270Z,820.00
2023-03-14T01:04:33.298Z,820.00
2023-03-14T01:05:33.237Z,820.00
2023-03-14T01:06:33.225Z,819.00
2023-03-14T01:07:33.223Z,816.00
2023-03-14T01:08:33.240Z,814.00
2023-03-14T01:09:33.207Z,814.00
2023-03-14T01:10:33.227Z,813.00
2023-03-14T01:11:33.180Z,813.00
2023-03-14T01:12:33.161Z,812.00
2023-03-14T01:13:33.148Z,812.00
2023-03-14T01:14:33.150Z,810.00
2023-03-14T01:15:33.133Z,808.00
2023-03-14T01:16:33.410Z,807.00
2023-03-14T01:17:33.114Z,808.00
2023-03-14T01:18:33.104Z,805.00
2023-03-14T01:19:33.099Z,803.00
2023-03-14T01:20:33.080Z,802.00
2023-03-14T01:21:33.077Z,802.00
2023-03-14T01:22:33.116Z,801.00
2023-03-14T01:23:33.051Z,799.00
2023-03-14T01:24:33.066Z,797.00
2023-03-14T01:25:33.024Z,798.00
2023-03-14T01:26:33.022Z,797.00
2023-03-14T01:27:32.998Z,796.00
2023-03-14T01:28:33.154Z,797.00
2023-03-14T01:29:33.014Z,796.00
2023-03-14T01:30:32.970Z,794.00
2023-03-14T01:31:33.111Z,791.00
2023-03-14T01:32:32.992Z,791.00
2023-03-14T01:33:32.971Z,790.00
2023-03-14T01:34:32.970Z,789.00
2023-03-14T01:35:32.960Z,790.00
2023-03-14T01:36:32.946Z,788.00
2023-03-14T01:37:32.907Z,788.00
2023-03-14T01:38:32.893Z,786.00
2023-03-14T01:39:32.889Z,784.00
2023-03-14T01:40:39.793Z,784.00
2023-03-14T01:41:32.855Z,782.00
2023-03-14T01:42:32.855Z,781.00
2023-03-14T01:43:32.832Z,779.00
2023-03-14T01:44:32.824Z,780.00
2023-03-14T01:45:32.863Z,779.00
2023-03-14T01:46:32.977Z,779.00
2023-03-14T01:47:32.801Z,781.00
2023-03-14T01:48:32.795Z,783.00
2023-03-14T01:49:32.782Z,783.00
2023-03-14T01:50:32.777Z,780.00
2023-03-14T01:51:32.756Z,779.00
2023-03-14T01:52:32.793Z,777.00
2023-03-14T01:53:32.723Z,778.00
2023-03-14T01:54:32.723Z,776.00
2023-03-14T01:55:32.710Z,774.00
2023-03-14T01:56:32.702Z,771.00
2023-03-14T01:57:32.682Z,773.00
2023-03-14T01:58:32.819Z,772.00
2023-03-14T01:59:32.662Z,772.00
2023-03-14T02:00:32.652Z,772.00
2023-03-14T02:01:32.641Z,772.00
2023-03-14T02:02:32.641Z,768.00
2023-03-14T02:03:32.653Z,771.00
2023-03-14T02:04:32.753Z,769.00
2023-03-14T02:05:32.604Z,765.00
2023-03-14T02:06:32.587Z,765.00
2023-03-14T02:07:32.581Z,764.00
2023-03-14T02:08:32.568Z,763.00
2023-03-14T02:09:32.570Z,765.00
2023-03-14T02:10:32.629Z,761.00
2023-03-14T02:11:32.530Z,758.00
2023-03-14T02:12:32.532Z,760.00
2023-03-14T02:13:32.509Z,760.00
2023-03-14T02:14:32.510Z,761.00
2023-03-14T02:15:32.497Z,762.00
2023-03-14T02:16:32.672Z,762.00
2023-03-14T02:17:32.473Z,762.00
2023-03-14T02:18:32.456Z,760.00
2023-03-14T02:19:32.442Z,758.00
2023-03-14T02:20:32.439Z,756.00
2023-03-14T02:21:32.421Z,755.00
2023-03-14T02:22:32.457Z,758.00
2023-03-14T02:23:32.406Z,755.00
2023-03-14T02:24:32.412Z,755.00
2023-03-14T02:25:32.372Z,753.00
2023-03-14T02:26:32.375Z,748.00
2023-03-14T02:27:32.352Z,745.00
2023-03-14T02:28:32.391Z,745.00
2023-03-14T02:29:32.336Z,746.00
2023-03-14T02:30:32.328Z,747.00
2023-03-14T02:31:32.335Z,747.00
2023-03-14T02:32:32.345Z,747.00
2023-03-14T02:33:32.297Z,750.00
2023-03-14T02:34:32.315Z,750.00
2023-03-14T02:35:32.398Z,753.00
2023-03-14T02:36:32.259Z,755.00
2023-03-14T02:37:32.248Z,756.00
2023-03-14T02:38:32.243Z,755.00
2023-03-14T02:39:32.228Z,752.00
2023-03-14T02:40:32.359Z,748.00
2023-03-14T02:41:32.212Z,747.00
2023-03-14T02:42:32.198Z,746.00
2023-03-14T02:43:32.198Z,747.00
2023-03-14T02:44:32.181Z,746.00
2023-03-14T02:45:32.190Z,748.00
2023-03-14T02:46:32.331Z,747.00
2023-03-14T02:47:32.143Z,747.00
2023-03-14T02:48:32.135Z,744.00
2023-03-14T02:49:32.113Z,742.00
2023-03-14T02:50:32.115Z,735.00
2023-03-14T02:51:32.102Z,734.00
2023-03-14T02:52:32.148Z,735.00
2023-03-14T02:53:32.090Z,737.00
2023-03-14T02:54:32.072Z,737.00
2023-03-14T02:55:32.068Z,735.00
2023-03-14T02:56:32.059Z,732.00
2023-03-14T02:57:32.036Z,731.00
2023-03-14T02:58:32.181Z,727.00
2023-03-14T02:59:32.017Z,725.00
2023-03-14T03:00:32.000Z,727.00
2023-03-14T03:01:32.010Z,729.00
2023-03-14T03:02:31.993Z,726.00
2023-03-14T03:03:32.032Z,725.00
2023-03-14T03:04:32.011Z,726.00
2023-03-14T03:05:31.947Z,725.00
2023-03-14T03:06:31.944Z,724.00
2023-03-14T03:07:31.920Z,722.00
2023-03-14T03:08:31.944Z,722.00
2023-03-14T03:09:31.914Z,721.00
2023-03-14T03:10:32.049Z,721.00
2023-03-14T03:11:31.883Z,721.00
2023-03-14T03:12:31.871Z,718.00
2023-03-14T03:13:31.862Z,720.00
2023-03-14T03:14:31.866Z,722.00
2023-03-14T03:15:31.843Z,721.00
2023-03-14T03:16:32.164Z,723.00
2023-03-14T03:17:31.821Z,726.00
2023-03-14T03:18:31.819Z,726.00
2023-03-14T03:19:31.805Z,723.00
2023-03-14T03:20:31.796Z,721.00
2023-03-14T03:21:31.778Z,720.00
2023-03-14T03:22:31.860Z,720.00
2023-03-14T03:23:31.757Z,719.00
2023-03-14T03:24:31.764Z,718.00
2023-03-14T03:25:31.746Z,715.00
2023-03-14T03:26:31.731Z,714.00
2023-03-14T03:27:31.723Z,711.00
2023-03-14T03:28:31.859Z,708.00
2023-03-14T03:29:31.720Z,705.00
2023-03-14T03:30:31.842Z,705.00
2023-03-14T03:31:31.671Z,705.00
2023-03-14T03:32:31.766Z,704.00
2023-03-14T03:33:31.663Z,702.00
2023-03-14T03:34:31.804Z,701.00
2023-03-14T03:35:31.658Z,700.00
2023-03-14T03:36:31.638Z,700.00
2023-03-14T03:37:31.612Z,703.00
2023-03-14T03:38:31.610Z,702.00
2023-03-14T03:39:31.594Z,700.00
2023-03-14T03:42:14.034Z,698.00
2023-03-14T03:43:15.001Z,716.00
2023-03-14T03:44:15.004Z,715.00
2023-03-14T03:45:15.003Z,714.00
2023-03-14T03:46:15.038Z,714.00
2023-03-14T03:47:15.125Z,714.00
2023-03-14T03:48:14.968Z,711.00
2023-03-14T03:49:14.957Z,710.00
2023-03-14T03:50:14.963Z,708.00
2023-03-14T03:51:14.923Z,707.00
2023-03-14T03:52:14.921Z,707.00
2023-03-14T03:53:17.892Z,706.00
2023-03-14T03:54:14.914Z,704.00
2023-03-14T03:55:14.936Z,702.00
2023-03-14T03:56:14.880Z,699.00
2023-03-14T03:57:14.859Z,701.00
2023-03-14T03:58:14.883Z,701.00
2023-03-14T03:59:14.905Z,700.00
2023-03-14T04:00:14.867Z,701.00
2023-03-14T04:01:14.836Z,700.00
2023-03-14T04:02:14.862Z,700.00
2023-03-14T04:03:14.818Z,699.00
2023-03-14T04:04:14.871Z,696.00
2023-03-14T04:05:14.928Z,696.00
2023-03-14T04:06:14.813Z,695.00
2023-03-14T04:07:14.769Z,693.00
2023-03-14T04:08:14.777Z,691.00
2023-03-14T04:09:14.755Z,691.00
2023-03-14T04:10:14.732Z,691.00
2023-03-14T04:11:16.579Z,691.00
2023-03-14T04:12:14.735Z,692.00
2023-03-14T04:13:14.697Z,692.00
2023-03-14T04:14:14.700Z,691.00
2023-03-14T04:15:14.680Z,691.00
2023-03-14T04:16:14.720Z,689.00
2023-03-14T04:17:14.759Z,689.00
2023-03-14T04:18:14.664Z,688.00
2023-03-14T04:19:14.665Z,688.00
2023-03-14T04:20:14.631Z,687.00
2023-03-14T04:21:14.637Z,684.00
2023-03-14T04:22:14.614Z,683.00
2023-03-14T04:23:14.757Z,682.00
2023-03-14T04:24:14.590Z,683.00
2023-03-14T04:25:14.574Z,685.00
2023-03-14T04:26:14.577Z,684.00
2023-03-14T04:27:14.560Z,684.00
2023-03-14T04:28:14.568Z,684.00
2023-03-14T04:29:14.671Z,683.00
2023-03-14T04:30:14.543Z,682.00
2023-03-14T04:31:14.543Z,684.00
2023-03-14T04:32:14.538Z,684.00
2023-03-14T04:33:14.500Z,684.00
2023-03-14T04:34:14.556Z,683.00
2023-03-14T04:35:14.516Z,682.00
2023-03-14T04:36:14.468Z,683.00
2023-03-14T04:37:14.469Z,682.00
2023-03-14T04:38:14.454Z,683.00
2023-03-14T04:39:14.427Z,683.00
2023-03-14T04:40:15.213Z,684.00
2023-03-14T04:41:21.332Z,683.00
2023-03-14T04:42:14.399Z,682.00
2023-03-14T04:43:14.385Z,683.00
2023-03-14T04:44:14.390Z,681.00
2023-03-14T04:45:14.361Z,680.00
2023-03-14T04:46:14.426Z,679.00
2023-03-14T04:47:14.482Z,676.00
2023-03-14T04:48:14.335Z,678.00
2023-03-14T04:49:14.325Z,679.00
2023-03-14T04:50:14.312Z,681.00
2023-03-14T04:51:14.300Z,683.00
2023-03-14T04:52:14.309Z,682.00
2023-03-14T04:53:14.332Z,681.00
2023-03-14T04:54:14.274Z,681.00
2023-03-14T04:55:14.264Z,682.00
2023-03-14T04:56:14.280Z,682.00
2023-03-14T04:57:14.238Z,680.00
2023-03-14T04:58:14.230Z,680.00
2023-03-14T04:59:14.247Z,678.00
2023-03-14T05:00:14.220Z,678.00
2023-03-14T05:01:14.198Z,678.00
2023-03-14T05:02:14.195Z,678.00
2023-03-14T05:03:14.259Z,680.00
2023-03-14T05:04:14.170Z,678.00
2023-03-14T05:05:14.299Z,676.00
2023-03-14T05:06:14.153Z,679.00
2023-03-14T05:07:15.050Z,682.00
2023-03-14T05:08:14.132Z,686.00
2023-03-14T05:09:14.110Z,689.00
2023-03-14T05:10:14.101Z,690.00
2023-03-14T05:11:14.144Z,691.00
2023-03-14T05:12:14.088Z,693.00
2023-03-14T05:13:14.069Z,695.00
2023-03-14T05:14:14.061Z,695.00
2023-03-14T05:15:14.040Z,697.00
2023-03-14T05:16:14.076Z,700.00
2023-03-14T05:17:14.185Z,700.00
2023-03-14T05:18:13.970Z,698.00
2023-03-14T05:19:14.131Z,699.00
2023-03-14T05:20:13.977Z,701.00
2023-03-14T05:21:13.978Z,701.00
2023-03-14T05:22:13.932Z,696.00
2023-03-14T05:23:14.005Z,695.00
2023-03-14T05:24:13.989Z,693.00
2023-03-14T05:25:13.942Z,693.00
2023-03-14T05:26:13.879Z,691.00
2023-03-14T05:27:13.870Z,689.00
2023-03-14T05:28:13.857Z,687.00
2023-03-14T05:29:13.875Z,688.00
2023-03-14T05:30:13.839Z,692.00
2023-03-14T05:31:13.853Z,696.00
2023-03-14T05:32:13.829Z,702.00
2023-03-14T05:33:13.801Z,706.00
2023-03-14T05:34:13.796Z,712.00
2023-03-14T05:35:13.921Z,713.00
2023-03-14T05:36:13.784Z,714.00
2023-03-14T05:37:13.759Z,714.00
2023-03-14T05:38:13.761Z,716.00
2023-03-14T05:39:13.749Z,715.00
2023-03-14T05:40:13.755Z,714.00
2023-03-14T05:41:13.867Z,715.00
2023-03-14T05:42:13.806Z,716.00
2023-03-14T05:43:13.711Z,719.00
2023-03-14T05:44:13.696Z,721.00
2023-03-14T05:45:13.683Z,720.00
2023-03-14T05:46:13.716Z,722.00
2023-03-14T05:47:13.701Z,721.00
2023-03-14T05:48:13.672Z,719.00
2023-03-14T05:49:13.645Z,718.00
2023-03-14T05:50:13.645Z,719.00
2023-03-14T05:51:13.624Z,723.00
2023-03-14T05:52:13.613Z,727.00
2023-03-14T05:53:13.763Z,733.00
2023-03-14T05:54:13.592Z,736.00
2023-03-14T05:55:13.609Z,738.00
2023-03-14T05:56:13.574Z,737.00
2023-03-14T05:57:13.560Z,737.00
2023-03-14T05:58:13.547Z,736.00
2023-03-14T05:59:13.582Z,737.00
2023-03-14T06:00:13.538Z,737.00
2023-03-14T06:01:13.514Z,735.00
2023-03-14T06:02:13.580Z,735.00
2023-03-14T06:03:13.555Z,737.00
2023-03-14T06:04:13.493Z,737.00
2023-03-14T06:05:13.646Z,738.00
2023-03-14T06:06:13.473Z,738.00
2023-03-14T06:07:13.489Z,738.00
2023-03-14T06:08:13.450Z,738.00
2023-03-14T06:09:13.497Z,740.00
2023-03-14T06:10:13.430Z,744.00
2023-03-14T06:11:13.452Z,745.00
2023-03-14T06:12:13.416Z,748.00
2023-03-14T06:13:13.410Z,751.00
2023-03-14T06:14:13.391Z,754.00
2023-03-14T06:15:13.369Z,754.00
2023-03-14T06:16:13.478Z,756.00
2023-03-14T06:17:15.472Z,759.00
2023-03-14T06:18:13.351Z,764.00
2023-03-14T06:19:13.326Z,766.00
2023-03-14T06:20:13.321Z,769.00
2023-03-14T06:21:13.310Z,772.00
2023-03-14T06:22:13.301Z,783.00
2023-03-14T06:23:13.328Z,792.00
2023-03-14T06:24:13.282Z,795.00
2023-03-14T06:25:13.286Z,796.00
2023-03-14T06:26:13.271Z,795.00
2023-03-14T06:27:13.243Z,796.00
2023-03-14T06:28:13.243Z,797.00
2023-03-14T06:29:13.492Z,796.00
2023-03-14T06:30:13.230Z,796.00
2023-03-14T06:31:13.253Z,798.00
2023-03-14T06:32:13.195Z,799.00
2023-03-14T06:33:13.181Z,797.00
2023-03-14T06:34:13.180Z,794.00
2023-03-14T06:35:13.217Z,792.00
2023-03-14T06:36:13.191Z,791.00
2023-03-14T06:37:13.140Z,789.00
2023-03-14T06:38:13.135Z,788.00
2023-03-14T06:39:13.123Z,788.00
2023-03-14T06:40:13.119Z,788.00
2023-03-14T06:41:13.150Z,792.00
2023-03-14T06:42:13.098Z,798.00
2023-03-14T06:43:13.082Z,801.00
2023-03-14T06:44:13.070Z,785.00
2023-03-14T06:45:13.062Z,768.00
2023-03-14T06:46:13.123Z,759.00
2023-03-14T06:47:13.204Z,757.00
2023-03-14T06:48:13.035Z,761.00
2023-03-14T06:49:13.024Z,764.00
2023-03-14T06:50:13.026Z,774.00
2023-03-14T06:51:13.005Z,779.00
2023-03-14T06:52:12.992Z,786.00
2023-03-14T06:53:13.249Z,788.00
2023-03-14T06:54:12.979Z,791.00
2023-03-14T06:55:12.976Z,791.00
2023-03-14T06:56:12.956Z,790.00
2023-03-14T06:57:12.962Z,790.00
2023-03-14T06:58:12.944Z,792.00
2023-03-14T06:59:12.981Z,793.00
2023-03-14T07:00:12.920Z,792.00
2023-03-14T07:01:12.935Z,792.00
2023-03-14T07:02:12.892Z,792.00
2023-03-14T07:03:13.554Z,791.00
2023-03-14T07:04:12.942Z,794.00
2023-03-14T07:05:12.904Z,793.00
2023-03-14T07:06:12.849Z,794.00
2023-03-14T07:07:12.837Z,792.00
2023-03-14T07:08:12.823Z,793.00
2023-03-14T07:09:12.809Z,793.00
2023-03-14T07:10:12.845Z,793.00
2023-03-14T07:11:12.946Z,794.00
2023-03-14T07:12:12.784Z,795.00
2023-03-14T07:13:12.789Z,799.00
2023-03-14T07:14:12.755Z,799.00
2023-03-14T07:15:18.743Z,798.00
2023-03-14T07:16:12.828Z,797.00
2023-03-14T07:17:12.867Z,798.00
2023-03-14T07:18:12.751Z,799.00
2023-03-14T07:19:12.710Z,797.00
2023-03-14T07:20:12.711Z,798.00
2023-03-14T07:21:12.698Z,799.00
2023-03-14T07:22:12.686Z,804.00
2023-03-14T07:23:12.822Z,804.00
2023-03-14T07:24:12.660Z,805.00
2023-03-14T07:25:12.652Z,807.00
2023-03-14T07:26:12.657Z,812.00
2023-03-14T07:27:12.630Z,814.00
2023-03-14T07:28:12.624Z,814.00
2023-03-14T07:29:12.680Z,812.00
2023-03-14T07:30:12.596Z,811.00
2023-03-14T07:31:12.649Z,811.00
2023-03-14T07:32:12.571Z,811.00
2023-03-14T07:33:12.555Z,811.00
2023-03-14T07:34:12.556Z,811.00
2023-03-14T07:35:12.582Z,808.00
2023-03-14T07:36:13.270Z,807.00
2023-03-14T07:37:12.525Z,805.00
2023-03-14T07:38:12.517Z,808.00
2023-03-14T07:39:12.497Z,805.00
2023-03-14T07:40:12.496Z,800.00
2023-03-14T07:41:19.949Z,797.00
2023-03-14T07:42:12.469Z,796.00
2023-03-14T07:43:12.489Z,796.00
2023-03-14T07:44:12.453Z,795.00
2023-03-14T07:45:12.591Z,797.00
2023-03-14T07:46:12.482Z,797.00
2023-03-14T07:47:12.637Z,796.00
2023-03-14T07:48:12.444Z,795.00
2023-03-14T07:49:12.421Z,795.00
2023-03-14T07:50:12.422Z,794.00
2023-03-14T07:51:12.401Z,796.00
2023-03-14T07:52:12.369Z,798.00
2023-03-14T07:53:12.411Z,796.00
2023-03-14T07:54:12.352Z,794.00
2023-03-14T07:55:12.349Z,792.00
2023-03-14T07:56:12.328Z,789.00
2023-03-14T07:57:12.344Z,787.00
2023-03-14T07:58:12.310Z,786.00
2023-03-14T07:59:12.454Z,786.00
2023-03-14T08:00:14.695Z,783.00
2023-03-14T08:01:12.300Z,786.00
2023-03-14T08:02:12.294Z,785.00
2023-03-14T08:03:12.269Z,785.00
2023-03-14T08:04:12.356Z,787.00
2023-03-14T08:05:12.316Z,787.00
2023-03-14T08:06:12.237Z,786.00
2023-03-14T08:07:12.220Z,784.00
2023-03-14T08:08:12.208Z,781.00
2023-03-14T08:09:12.356Z,781.00
2023-03-14T08:10:12.213Z,781.00
2023-03-14T08:11:12.330Z,780.00
2023-03-14T08:12:12.164Z,783.00
2023-03-14T08:13:12.170Z,782.00
2023-03-14T08:14:12.160Z,783.00
2023-03-14T08:15:12.166Z,784.00
2023-03-14T08:16:12.163Z,785.00
2023-03-14T08:17:12.293Z,785.00
2023-03-14T08:18:12.116Z,782.00
2023-03-14T08:19:12.106Z,780.00
2023-03-14T08:20:12.094Z,778.00
2023-03-14T08:21:12.073Z,779.00
2023-03-14T08:22:12.080Z,778.00
2023-03-14T08:23:12.138Z,780.00
2023-03-14T08:24:12.082Z,779.00
2023-03-14T08:25:12.086Z,778.00
2023-03-14T08:26:12.032Z,779.00
2023-03-14T08:27:12.057Z,779.00
2023-03-14T08:28:12.000Z,782.00
2023-03-14T08:29:12.051Z,786.00
2023-03-14T08:30:11.981Z,790.00
2023-03-14T08:31:12.142Z,793.00
2023-03-14T08:32:12.028Z,797.00
2023-03-14T08:33:11.970Z,799.00
2023-03-14T08:34:11.946Z,800.00
2023-03-14T08:35:12.006Z,807.00
2023-03-14T08:36:11.953Z,810.00
2023-03-14T08:37:23.824Z,813.00
2023-03-14T08:38:11.898Z,815.00
2023-03-14T08:39:12.028Z,818.00
2023-03-14T08:40:11.866Z,821.00
2023-03-14T08:41:19.413Z,820.00
2023-03-14T08:42:11.859Z,821.00
2023-03-14T08:43:11.844Z,822.00
2023-03-14T08:44:11.854Z,826.00
2023-03-14T08:45:11.849Z,826.00
2023-03-14T08:46:11.805Z,826.00
2023-03-14T08:47:12.062Z,831.00
2023-03-14T08:48:11.783Z,837.00
2023-03-14T08:49:11.793Z,840.00
2023-03-14T08:50:15.568Z,840.00
2023-03-14T08:51:11.816Z,836.00
2023-03-14T08:52:11.747Z,834.00
2023-03-14T08:53:11.794Z,830.00
2023-03-14T08:54:11.752Z,827.00
2023-03-14T08:55:11.715Z,825.00
2023-03-14T08:56:11.706Z,824.00
2023-03-14T08:57:11.702Z,820.00
2023-03-14T08:58:11.687Z,817.00
2023-03-14T08:59:11.852Z,814.00
2023-03-14T09:00:11.675Z,812.00
2023-03-14T09:01:11.757Z,808.00
2023-03-14T09:02:13.384Z,805.00
2023-03-14T09:03:11.657Z,804.00
2023-03-14T09:04:11.705Z,801.00
2023-03-14T09:05:11.675Z,800.00
2023-03-14T09:06:11.599Z,798.00
2023-03-14T09:07:11.605Z,799.00
2023-03-14T09:08:11.575Z,801.00
2023-03-14T09:09:11.566Z,804.00
2023-03-14T09:10:11.564Z,802.00
2023-03-14T09:11:11.723Z,802.00
2023-03-14T09:12:11.545Z,801.00
2023-03-14T09:13:11.546Z,804.00
2023-03-14T09:14:11.530Z,806.00
2023-03-14T09:15:11.509Z,806.00
2023-03-14T09:16:11.547Z,805.00
2023-03-14T09:17:11.644Z,807.00
2023-03-14T09:18:11.476Z,805.00
2023-03-14T09:19:11.475Z,805.00
2023-03-14T09:20:11.465Z,806.00
2023-03-14T09:21:11.446Z,805.00
2023-03-14T09:22:11.433Z,806.00
2023-03-14T09:23:11.457Z,806.00
2023-03-14T09:24:11.412Z,809.00
2023-03-14T09:25:11.407Z,811.00
2023-03-14T09:26:11.398Z,813.00
2023-03-14T09:27:11.393Z,813.00
2023-03-14T09:28:11.373Z,813.00
2023-03-14T09:29:11.421Z,811.00
2023-03-14T09:30:11.355Z,811.00
2023-03-14T09:31:11.350Z,816.00
2023-03-14T09:32:11.337Z,819.00
2023-03-14T09:33:11.325Z,821.00
2023-03-14T09:34:11.315Z,825.00
2023-03-14T09:35:11.355Z,829.00
2023-03-14T09:36:11.303Z,828.00
2023-03-14T09:37:11.287Z,829.00
2023-03-14T09:38:11.266Z,831.00
2023-03-14T09:39:11.272Z,834.00
2023-03-14T09:40:11.287Z,835.00
2023-03-14T09:41:11.475Z,837.00
2023-03-14T09:42:11.238Z,839.00
2023-03-14T09:43:11.232Z,841.00
2023-03-14T09:44:11.204Z,844.00
2023-03-14T09:45:11.216Z,843.00
2023-03-14T09:46:11.238Z,845.00
2023-03-14T09:47:11.364Z,848.00
2023-03-14T09:48:11.157Z,846.00
2023-03-14T09:49:11.155Z,848.00
2023-03-14T09:50:11.136Z,847.00
2023-03-14T09:51:11.162Z,847.00
2023-03-14T09:52:11.118Z,848.00
2023-03-14T09:53:11.162Z,850.00
2023-03-14T09:54:11.101Z,847.00
2023-03-14T09:55:11.185Z,845.00
2023-03-14T09:56:11.077Z,842.00
2023-03-14T09:57:11.073Z,840.00
2023-03-14T09:58:11.058Z,840.00
2023-03-14T09:59:11.093Z,838.00
2023-03-14T10:00:11.145Z,840.00
2023-03-14T10:01:11.091Z,845.00
2023-03-14T10:02:11.011Z,846.00
2023-03-14T10:03:11.015Z,844.00
2023-03-14T10:04:11.053Z,843.00
2023-03-14T10:05:11.122Z,843.00
2023-03-14T10:06:10.971Z,842.00
2023-03-14T10:07:10.965Z,841.00
2023-03-14T10:08:10.959Z,843.00
2023-03-14T10:09:10.946Z,845.00
2023-03-14T10:10:10.934Z,848.00
2023-03-14T10:11:10.991Z,849.00
2023-03-14T10:12:10.965Z,847.00
2023-03-14T10:13:10.911Z,847.00
2023-03-14T10:14:10.890Z,845.00
2023-03-14T10:15:10.927Z,843.00
2023-03-14T10:16:10.872Z,848.00
2023-03-14T10:17:11.100Z,846.00
2023-03-14T10:18:10.853Z,844.00
2023-03-14T10:19:10.846Z,839.00
2023-03-14T10:20:10.815Z,841.00
2023-03-14T10:21:10.817Z,838.00
2023-03-14T10:22:10.812Z,836.00
2023-03-14T10:23:10.855Z,835.00
2023-03-14T10:24:10.785Z,831.00
2023-03-14T10:25:10.789Z,825.00
2023-03-14T10:26:10.763Z,818.00
2023-03-14T10:27:10.753Z,814.00
2023-03-14T10:28:10.741Z,810.00
2023-03-14T10:29:10.875Z,808.00
2023-03-14T10:30:10.725Z,806.00
2023-03-14T10:31:10.743Z,804.00
2023-03-14T10:32:10.728Z,801.00
2023-03-14T10:33:10.701Z,801.00
2023-03-14T10:34:10.680Z,800.00
2023-03-14T10:35:10.838Z,800.00
2023-03-14T10:36:13.433Z,801.00
2023-03-14T10:37:10.656Z,803.00
2023-03-14T10:38:10.641Z,803.00
2023-03-14T10:39:10.635Z,805.00
2023-03-14T10:40:10.625Z,807.00
2023-03-14T10:41:10.909Z,809.00
2023-03-14T10:42:10.604Z,809.00
2023-03-14T10:43:10.597Z,811.00
2023-03-14T10:44:10.580Z,813.00
2023-03-14T10:45:10.595Z,810.00
2023-03-14T10:46:10.699Z,808.00
2023-03-14T10:47:10.721Z,809.00
2023-03-14T10:48:10.557Z,811.00
2023-03-14T10:49:10.532Z,812.00
2023-03-14T10:50:10.521Z,809.00
2023-03-14T10:51:10.531Z,810.00
2023-03-14T10:52:10.501Z,812.00
2023-03-14T10:53:10.556Z,814.00
2023-03-14T10:54:10.479Z,813.00
2023-03-14T10:55:10.482Z,813.00
2023-03-14T10:56:10.453Z,813.00
2023-03-14T10:57:10.452Z,815.00
2023-03-14T10:58:10.430Z,818.00
2023-03-14T10:59:10.469Z,821.00
2023-03-14T11:00:10.418Z,821.00
2023-03-14T11:01:10.442Z,822.00
2023-03-14T11:02:11.910Z,819.00
2023-03-14T11:03:10.390Z,816.00
2023-03-14T11:04:10.373Z,817.00
2023-03-14T11:05:11.417Z,818.00
2023-03-14T11:06:10.370Z,819.00
2023-03-14T11:07:10.362Z,821.00
2023-03-14T11:08:10.344Z,820.00
2023-03-14T11:09:10.333Z,821.00
2023-03-14T11:10:10.360Z,820.00
2023-03-14T11:11:10.453Z,823.00
2023-03-14T11:12:10.288Z,823.00
2023-03-14T11:13:10.287Z,823.00
2023-03-14T11:14:10.272Z,824.00
2023-03-14T11:15:10.264Z,830.00
2023-03-14T11:16:10.344Z,831.00
2023-03-14T11:17:10.325Z,831.00
2023-03-14T11:18:10.234Z,833.00
2023-03-14T11:19:10.261Z,832.00
2023-03-14T11:20:10.206Z,832.00
2023-03-14T11:21:10.205Z,828.00
2023-03-14T11:22:10.201Z,828.00
2023-03-14T11:23:10.343Z,829.00
2023-03-14T11:24:10.187Z,829.00
2023-03-14T11:25:10.164Z,829.00
2023-03-14T11:26:10.151Z,826.00
2023-03-14T11:27:10.155Z,826.00
2023-03-14T11:28:10.122Z,827.00
2023-03-14T11:29:10.276Z,829.00
2023-03-14T11:30:10.138Z,828.00
2023-03-14T11:31:10.140Z,824.00
2023-03-14T11:32:10.161Z,821.00
2023-03-14T11:33:10.086Z,822.00
2023-03-14T11:34:10.074Z,819.00
2023-03-14T11:35:10.132Z,818.00
2023-03-14T11:36:10.312Z,819.00
2023-03-14T11:37:10.044Z,815.00
2023-03-14T11:38:10.039Z,812.00
2023-03-14T11:39:10.021Z,812.00
2023-03-14T11:40:10.003Z,813.00
2023-03-14T11:41:10.162Z,815.00
2023-03-14T11:42:09.984Z,814.00
2023-03-14T11:43:09.977Z,816.00
2023-03-14T11:44:09.969Z,815.00
2023-03-14T11:45:09.949Z,813.00
2023-03-14T11:46:09.982Z,813.00
2023-03-14T11:47:10.066Z,813.00
2023-03-14T11:48:09.923Z,815.00
2023-03-14T11:49:09.914Z,814.00
2023-03-14T11:50:09.909Z,818.00
2023-03-14T11:51:09.886Z,819.00
2023-03-14T11:52:09.894Z,817.00
2023-03-14T11:53:09.924Z,814.00
2023-03-14T11:54:09.861Z,816.00
2023-03-14T11:55:09.849Z,817.00
2023-03-14T11:56:09.839Z,823.00
2023-03-14T11:57:09.825Z,829.00
2023-03-14T11:58:09.823Z,836.00
2023-03-14T11:59:09.966Z,840.00
2023-03-14T12:00:09.803Z,844.00
2023-03-14T12:01:09.789Z,844.00
2023-03-14T12:02:09.833Z,840.00
2023-03-14T12:03:09.759Z,836.00
2023-03-14T12:04:09.813Z,831.00
2023-03-14T12:05:09.900Z,825.00
2023-03-14T12:06:09.746Z,818.00
2023-03-14T12:07:09.744Z,813.00
2023-03-14T12:08:09.714Z,803.00
2023-03-14T12:09:09.889Z,799.00
2023-03-14T12:10:09.693Z,800.00
2023-03-14T12:11:09.725Z,803.00
2023-03-14T12:12:09.670Z,805.00
2023-03-14T12:13:09.702Z,809.00
2023-03-14T12:14:09.674Z,813.00
2023-03-14T12:15:09.692Z,816.00
2023-03-14T12:16:09.710Z,815.00
2023-03-14T12:17:09.740Z,814.00
2023-03-14T12:18:09.643Z,814.00
2023-03-14T12:19:09.595Z,814.00
2023-03-14T12:20:09.628Z,812.00
2023-03-14T12:21:09.590Z,808.00
2023-03-14T12:22:09.567Z,807.00
2023-03-14T12:23:09.745Z,806.00
2023-03-14T12:24:09.615Z,803.00
2023-03-14T12:25:09.538Z,800.00
2023-03-14T12:26:09.768Z,800.00
2023-03-14T12:27:09.513Z,800.00
2023-03-14T12:28:09.511Z,801.00
2023-03-14T12:29:09.563Z,798.00
2023-03-14T12:30:09.485Z,797.00